Time;durP1;ratioP1;P1;durP2;ratioP2;P2;SDS_P1;SDS_P2;PMS_P1;PMS_P2;Temp;Humidity;BMP_temperature;BMP_pressure;BME280_temperature;BME280_humidity;BME280_pressure;Samples;Min_cycle;Max_cycle;Signal;HPM_P1;HPM_P2
2021/07/25 00:02:07;;;;;;;18.75;9.43;;;;;;;28.20;40.80;99420.00;4483460;32;33982;-61
2021/07/25 00:04:35;;;;;;;16.30;9.55;;;;;;;28.21;40.90;99415.34;4483807;32;33919;-61
2021/07/25 00:07:14;;;;;;;13.20;10.27;;;;;;;28.20;40.92;99410.94;4483966;32;34492;-61
2021/07/25 00:09:42;;;;;;;11.57;10.02;;;;;;;28.20;40.90;99409.03;4472520;32;78951;-61
2021/07/25 00:12:11;;;;;;;14.13;9.88;;;;;;;28.19;40.90;99404.63;4468077;32;34909;-61
2021/07/25 00:14:39;;;;;;;17.35;10.13;;;;;;;28.19;40.88;99395.59;4468322;32;33767;-61
2021/07/25 00:17:06;;;;;;;15.88;10.15;;;;;;;28.18;40.84;99392.03;4467976;32;34249;-62
2021/07/25 00:19:37;;;;;;;16.95;10.88;;;;;;;28.17;40.59;99387.62;4468135;32;34304;-61
2021/07/25 00:22:16;;;;;;;15.88;10.73;;;;;;;28.17;40.72;99375.84;4468040;32;34036;-61
2021/07/25 00:24:50;;;;;;;15.98;10.98;;;;;;;28.17;40.82;99364.88;4467966;32;34351;-61
2021/07/25 00:27:26;;;;;;;13.52;10.57;;;;;;;28.15;40.56;99361.56;4468714;32;33528;-61
2021/07/25 00:29:54;;;;;;;13.55;9.85;;;;;;;28.15;40.66;99354.16;4478163;32;33537;-61
2021/07/25 00:32:21;;;;;;;13.57;10.70;;;;;;;28.14;40.66;99349.75;4483694;32;33688;-61
2021/07/25 00:34:49;;;;;;;14.30;10.15;;;;;;;28.14;40.57;99349.75;4483797;32;34078;-61
2021/07/25 00:37:18;;;;;;;12.70;9.82;;;;;;;28.13;40.63;99348.13;4483525;32;33746;-61
2021/07/25 00:39:46;;;;;;;16.30;10.45;;;;;;;28.13;40.57;99344.56;4483432;32;33966;-61
2021/07/25 00:42:13;;;;;;;19.12;10.90;;;;;;;28.12;40.71;99338.25;4483406;32;34015;-61
2021/07/25 00:44:41;;;;;;;18.85;10.90;;;;;;;28.12;40.71;99338.25;4469246;32;34504;-61
2021/07/25 00:47:08;;;;;;;15.32;10.93;;;;;;;28.11;40.71;99346.72;4468048;32;34484;-61
2021/07/25 00:49:36;;;;;;;17.92;11.25;;;;;;;28.12;40.75;99343.75;4479477;32;34298;-61
2021/07/25 00:52:05;;;;;;;15.30;10.85;;;;;;;28.11;40.68;99350.28;4481972;32;34045;-61
2021/07/25 00:54:32;;;;;;;14.48;10.65;;;;;;;28.11;40.67;99358.53;4483312;32;33865;-61
2021/07/25 00:56:59;;;;;;;14.30;10.55;;;;;;;28.11;40.62;99353.03;4469278;32;33619;-62
2021/07/25 00:59:27;;;;;;;14.68;11.25;;;;;;;28.11;40.58;99350.28;4483218;32;33771;-61
2021/07/25 01:01:55;;;;;;;12.48;10.52;;;;;;;28.11;40.63;99346.72;4482891;32;33716;-61
2021/07/25 01:04:35;;;;;;;14.87;10.68;;;;;;;28.10;40.66;99334.94;4483245;32;34127;-61
2021/07/25 01:07:11;;;;;;;13.90;10.68;;;;;;;28.10;40.69;99323.97;4494836;31;33718;-61
2021/07/25 01:09:50;;;;;;;13.50;10.07;;;;;;;28.10;40.55;99337.69;4483224;32;33877;-61
2021/07/25 01:12:20;;;;;;;13.95;11.02;;;;;;;28.08;40.60;99345.37;4494873;31;34044;-61
2021/07/25 01:14:48;;;;;;;13.50;10.82;;;;;;;28.08;40.81;99344.53;4496146;31;34590;-61
2021/07/25 01:17:28;;;;;;;16.08;10.77;;;;;;;28.09;40.87;99344.25;4496172;31;34182;-61
2021/07/25 01:19:57;;;;;;;16.33;11.30;;;;;;;28.10;40.83;99342.34;4485273;32;34026;-61
2021/07/25 01:22:25;;;;;;;12.07;10.73;;;;;;;28.08;40.63;99348.09;4484020;32;33374;-61
2021/07/25 01:24:53;;;;;;;13.88;10.95;;;;;;;28.07;40.48;99360.19;4497132;31;33961;-62
2021/07/25 01:27:24;;;;;;;12.88;10.32;;;;;;;28.06;40.43;99364.00;4497093;31;33494;-61
2021/07/25 01:29:51;;;;;;;14.05;10.68;;;;;;;28.06;40.57;99357.69;4496370;31;34587;-61
2021/07/25 01:32:18;;;;;;;12.73;11.07;;;;;;;28.06;40.47;99366.72;4484008;32;34920;-61
2021/07/25 01:34:47;;;;;;;14.63;11.30;;;;;;;28.07;40.46;99364.81;4462932;32;33202;-61
2021/07/25 01:37:14;;;;;;;16.27;10.90;;;;;;;28.05;40.57;99365.09;4481321;32;33556;-61
2021/07/25 01:39:42;;;;;;;13.77;10.77;;;;;;;28.05;40.49;99365.09;4469517;32;34116;-61
2021/07/25 01:42:10;;;;;;;13.95;10.93;;;;;;;28.05;40.57;99373.31;4469393;32;34742;-61
2021/07/25 01:44:37;;;;;;;13.05;10.40;;;;;;;28.06;40.53;99369.47;4469144;32;34209;-61
2021/07/25 01:47:05;;;;;;;11.77;10.20;;;;;;;28.05;40.54;99373.31;4469355;32;33528;-61
2021/07/25 01:49:32;;;;;;;11.80;10.60;;;;;;;28.05;40.54;99376.06;4469416;32;33590;-61
2021/07/25 01:52:00;;;;;;;13.18;11.68;;;;;;;28.05;40.53;99372.50;4482714;32;32746;-61
2021/07/25 01:54:27;;;;;;;14.55;11.57;;;;;;;28.04;40.43;99370.84;4485147;32;34599;-61
2021/07/25 01:56:55;;;;;;;15.18;11.40;;;;;;;28.03;40.58;99356.31;4485004;32;33495;-61
2021/07/25 01:59:22;;;;;;;12.02;10.02;;;;;;;28.03;40.52;99360.97;4484875;32;34037;-61
2021/07/25 02:01:50;;;;;;;15.18;11.15;;;;;;;28.02;40.54;99360.13;4484890;32;34703;-61
2021/07/25 02:04:18;;;;;;;11.77;10.57;;;;;;;28.02;40.52;99362.03;4485027;32;33868;-61
2021/07/25 02:06:45;;;;;;;17.08;11.68;;;;;;;28.02;40.62;99364.78;4483501;32;33489;-61
2021/07/25 02:09:13;;;;;;;11.23;10.02;;;;;;;28.02;40.46;99365.62;4484359;32;33964;-61
2021/07/25 02:11:40;;;;;;;12.02;10.70;;;;;;;28.02;40.54;99371.09;4484681;32;34237;-61
2021/07/25 02:14:08;;;;;;;21.90;11.12;;;;;;;28.01;40.56;99371.38;4484750;32;33952;-61
2021/07/25 02:16:38;;;;;;;13.38;10.88;;;;;;;28.02;40.50;99365.62;4484871;32;34270;-60
2021/07/25 02:19:05;;;;;;;14.68;10.93;;;;;;;28.02;40.50;99371.09;4484832;32;34057;-61
2021/07/25 02:21:33;;;;;;;14.10;10.55;;;;;;;28.02;40.54;99357.38;4484694;32;34191;-61
2021/07/25 02:24:00;;;;;;;16.08;10.65;;;;;;;28.02;40.59;99351.91;4484830;32;33572;-61
2021/07/25 02:26:28;;;;;;;12.00;9.98;;;;;;;28.00;40.46;99354.09;4495659;31;33184;-61
2021/07/25 02:28:55;;;;;;;14.55;10.55;;;;;;;28.00;40.38;99361.50;4484807;32;34608;-61
2021/07/25 02:31:23;;;;;;;11.55;9.93;;;;;;;28.00;40.36;99359.59;4484801;32;34026;-61
2021/07/25 02:33:51;;;;;;;12.55;10.68;;;;;;;28.00;40.36;99354.09;4484865;32;34779;-61
2021/07/25 02:36:18;;;;;;;13.82;10.60;;;;;;;27.99;40.38;99357.94;4484889;32;33257;-61
2021/07/25 02:38:46;;;;;;;12.32;10.00;;;;;;;28.00;40.34;99364.25;4484663;32;34715;-61
2021/07/25 02:41:13;;;;;;;14.95;11.48;;;;;;;28.00;40.39;99367.81;4484684;32;33627;-61
2021/07/25 02:43:40;;;;;;;14.75;10.98;;;;;;;28.00;40.25;99377.97;4484024;32;33783;-61
2021/07/25 02:46:09;;;;;;;21.20;11.55;;;;;;;27.99;40.37;99377.13;4484780;32;33579;-61
2021/07/25 02:48:37;;;;;;;17.27;10.73;;;;;;;27.99;40.58;99379.88;4484629;32;34542;-61
2021/07/25 02:51:04;;;;;;;22.80;10.90;;;;;;;27.99;40.49;99382.63;4496236;31;34795;-61
2021/07/25 02:53:32;;;;;;;13.65;10.50;;;;;;;27.99;40.55;99390.84;4484649;32;33857;-61
2021/07/25 02:55:59;;;;;;;12.23;10.13;;;;;;;27.99;40.32;99404.56;4484546;32;33623;-61
2021/07/25 02:58:27;;;;;;;11.85;10.48;;;;;;;27.99;40.52;99410.03;4484560;32;34469;-61
2021/07/25 03:00:54;;;;;;;13.80;10.60;;;;;;;27.99;40.34;99421.00;4484101;32;34369;-61
2021/07/25 03:03:22;;;;;;;11.82;9.95;;;;;;;28.00;40.50;99430.06;4484388;32;34125;-63
2021/07/25 03:05:49;;;;;;;17.42;10.35;;;;;;;27.98;40.36;99444.06;4484641;32;33719;-61
2021/07/25 03:08:17;;;;;;;13.48;9.98;;;;;;;27.99;40.41;99459.41;4484583;32;34699;-61
2021/07/25 03:10:44;;;;;;;14.82;10.15;;;;;;;27.97;40.39;99464.31;4484295;32;34898;-61
2021/07/25 03:13:12;;;;;;;13.57;10.80;;;;;;;27.96;40.37;99474.47;4484535;32;34525;-61
2021/07/25 03:15:40;;;;;;;12.20;10.90;;;;;;;27.96;40.40;99468.97;4483908;32;34324;-61
2021/07/25 03:18:07;;;;;;;11.43;9.77;;;;;;;27.97;40.32;99456.91;4484222;32;33936;-61
2021/07/25 03:20:35;;;;;;;13.32;10.07;;;;;;;27.96;40.27;99476.38;4484520;32;34113;-61
2021/07/25 03:23:02;;;;;;;13.10;10.82;;;;;;;27.97;40.40;99478.03;4484400;32;33915;-61
2021/07/25 03:25:30;;;;;;;13.30;10.45;;;;;;;27.97;40.49;99481.59;4484329;32;33407;-61
2021/07/25 03:27:57;;;;;;;13.55;10.13;;;;;;;27.97;40.39;99484.34;4484405;32;34740;-61
2021/07/25 03:30:25;;;;;;;14.13;10.80;;;;;;;27.97;40.39;99483.50;4484308;32;34846;-61
2021/07/25 03:32:53;;;;;;;11.30;10.02;;;;;;;27.96;40.27;99485.44;4483623;32;34577;-61
2021/07/25 03:35:20;;;;;;;16.52;10.32;;;;;;;27.96;40.34;99477.19;4484404;32;34164;-62
2021/07/25 03:37:48;;;;;;;13.35;10.48;;;;;;;27.97;40.35;99480.75;4483578;32;33806;-61
2021/07/25 03:40:15;;;;;;;14.73;10.93;;;;;;;27.96;40.46;99468.16;4484224;32;34075;-61
2021/07/25 03:42:43;;;;;;;14.85;11.12;;;;;;;27.96;40.51;99466.22;4484128;32;34547;-61
2021/07/25 03:45:10;;;;;;;13.88;10.18;;;;;;;27.96;40.37;99468.16;4484289;32;33562;-61
2021/07/25 03:47:38;;;;;;;12.88;10.23;;;;;;;27.96;40.38;99479.12;4484141;32;33884;-61
2021/07/25 03:50:06;;;;;;;13.45;10.57;;;;;;;27.94;40.39;99487.62;4483683;32;34332;-61
2021/07/25 03:52:35;;;;;;;15.30;11.25;;;;;;;27.95;40.36;99488.44;4484280;32;33881;-61
2021/07/25 03:55:04;;;;;;;14.38;10.70;;;;;;;27.95;40.49;99491.19;4496047;31;33090;-61
2021/07/25 03:57:32;;;;;;;13.53;11.10;;;;;;;27.94;40.38;99506.00;4484187;32;33958;-61
2021/07/25 04:00:01;;;;;;;15.00;11.30;;;;;;;27.95;40.38;99505.72;4484143;32;33935;-61
2021/07/25 04:02:33;;;;;;;13.50;11.27;;;;;;;27.95;40.49;99500.22;4483910;32;34568;-61
2021/07/25 04:05:00;;;;;;;15.32;11.00;;;;;;;27.95;40.54;99481.03;4484336;32;33157;-61
2021/07/25 04:07:28;;;;;;;16.70;10.93;;;;;;;27.96;40.57;99457.19;4483311;32;34122;-61
2021/07/25 04:09:55;;;;;;;13.88;10.82;;;;;;;27.96;40.55;99444.28;4483572;32;34266;-61
2021/07/25 04:12:23;;;;;;;21.55;11.95;;;;;;;27.94;40.69;99457.47;4483961;32;33811;-61
2021/07/25 04:14:51;;;;;;;16.33;11.02;;;;;;;27.93;40.85;99490.59;4483996;32;33401;-61
2021/07/25 04:17:18;;;;;;;14.40;11.43;;;;;;;27.94;40.83;99486.81;4483977;32;33887;-61
2021/07/25 04:19:46;;;;;;;18.15;10.50;;;;;;;27.93;41.00;99482.37;4483832;32;33970;-61
2021/07/25 04:22:13;;;;;;;15.00;11.77;;;;;;;27.95;40.90;99461.03;4483812;32;33942;-61
2021/07/25 04:24:41;;;;;;;14.73;11.55;;;;;;;27.94;41.01;99449.22;4482914;32;34038;-61
2021/07/25 04:27:09;;;;;;;17.30;11.30;;;;;;;27.94;41.31;99451.16;4483825;32;33666;-61
2021/07/25 04:29:36;;;;;;;14.73;12.30;;;;;;;27.94;41.32;99442.94;4483636;32;34140;-61
2021/07/25 04:32:04;;;;;;;15.27;12.48;;;;;;;27.93;41.50;99442.09;4482536;32;31990;-61
2021/07/25 04:34:32;;;;;;;17.20;12.35;;;;;;;27.93;41.58;99446.72;4483745;32;34613;-61
2021/07/25 04:37:01;;;;;;;15.85;11.55;;;;;;;27.93;41.43;99444.00;4483646;32;34093;-61
2021/07/25 04:39:29;;;;;;;18.87;12.18;;;;;;;27.92;41.45;99437.69;4483747;32;34086;-61
2021/07/25 04:41:57;;;;;;;16.17;12.40;;;;;;;27.95;41.50;99450.06;4482915;32;33154;-61
2021/07/25 04:44:41;;;;;;;15.75;12.73;;;;;;;27.92;41.71;99447.84;4483281;32;34128;-61
2021/07/25 04:47:11;;;;;;;13.73;12.32;;;;;;;27.93;41.80;99452.22;4495513;31;34648;-61
2021/07/25 04:50:13;;;;;;;14.77;12.80;;;;;;;27.92;41.88;99458.78;4496925;31;33953;-61
2021/07/25 04:52:41;;;;;;;17.42;12.88;;;;;;;27.92;41.91;99458.78;4450822;32;33791;-61
2021/07/25 04:55:10;;;;;;;14.20;12.37;;;;;;;27.92;41.90;99453.31;4485592;32;33645;-60
2021/07/25 04:57:42;;;;;;;14.83;12.17;;;;;;;27.92;42.02;99442.34;4484632;32;33905;-61
2021/07/25 05:00:14;;;;;;;14.23;12.57;;;;;;;27.91;42.02;99436.03;4485365;32;33717;-61
2021/07/25 05:02:42;;;;;;;14.95;13.20;;;;;;;27.91;42.07;99427.81;4485382;32;33959;-61
2021/07/25 05:05:11;;;;;;;14.43;12.50;;;;;;;27.92;42.06;99420.41;4485465;32;33938;-61
2021/07/25 05:07:42;;;;;;;16.30;12.68;;;;;;;27.92;42.00;99413.00;4485186;32;34109;-61
2021/07/25 05:10:10;;;;;;;15.20;12.55;;;;;;;27.92;41.96;99413.00;4496725;31;33965;-60
2021/07/25 05:12:47;;;;;;;15.02;12.68;;;;;;;27.93;41.97;99416.56;4485323;32;33801;-61
2021/07/25 05:15:15;;;;;;;20.40;12.95;;;;;;;27.92;41.82;99432.19;4484652;32;33013;-60
2021/07/25 05:17:47;;;;;;;15.85;12.48;;;;;;;27.94;42.00;99435.53;4485312;32;35032;-61
2021/07/25 05:20:15;;;;;;;17.58;13.27;;;;;;;27.93;41.86;99427.53;4496970;31;34046;-61
2021/07/25 05:22:54;;;;;;;18.85;12.73;;;;;;;27.94;41.89;99427.28;4497048;31;34646;-61
2021/07/25 05:25:23;;;;;;;15.23;12.73;;;;;;;27.93;42.11;99419.31;4496947;31;34339;-61
2021/07/25 05:27:51;;;;;;;14.43;12.88;;;;;;;27.95;42.09;99417.16;4485526;32;34353;-61
2021/07/25 05:30:20;;;;;;;17.20;13.68;;;;;;;27.93;42.20;99403.72;4497002;31;34228;-61
2021/07/25 05:32:48;;;;;;;16.08;13.30;;;;;;;27.93;42.20;99389.16;4484517;32;34504;-60
2021/07/25 05:35:16;;;;;;;15.45;13.82;;;;;;;27.95;42.21;99386.97;4485282;32;33189;-61
2021/07/25 05:37:44;;;;;;;15.52;13.52;;;;;;;27.94;42.25;99380.69;4485025;32;33968;-61
2021/07/25 05:40:13;;;;;;;14.95;13.30;;;;;;;27.94;42.31;99388.91;4496812;31;34117;-61
2021/07/25 05:42:40;;;;;;;15.40;13.38;;;;;;;27.94;42.34;99393.56;4485019;32;34583;-61
2021/07/25 05:45:08;;;;;;;15.50;13.27;;;;;;;27.94;42.26;99393.56;4485062;32;33783;-61
2021/07/25 05:47:37;;;;;;;16.35;14.65;;;;;;;27.94;42.19;99393.56;4485002;32;33878;-61
2021/07/25 05:50:04;;;;;;;16.37;13.55;;;;;;;27.94;42.25;99393.56;4478384;32;34810;-61
2021/07/25 05:52:49;;;;;;;19.40;14.02;;;;;;;27.95;42.35;99397.94;4485054;32;34227;-61
2021/07/25 05:55:23;;;;;;;16.92;13.85;;;;;;;27.96;42.45;99392.19;4484871;32;34417;-61
2021/07/25 05:57:52;;;;;;;18.90;12.90;;;;;;;27.95;42.46;99389.72;4484977;32;34241;-61
2021/07/25 06:00:19;;;;;;;15.52;13.15;;;;;;;27.94;42.42;99394.38;4484277;32;34190;-60
2021/07/25 06:03:03;;;;;;;16.10;14.40;;;;;;;27.94;42.40;99394.38;4483602;32;33770;-61
2021/07/25 06:05:32;;;;;;;17.40;14.15;;;;;;;27.97;42.54;99393.00;4484734;32;34040;-61
2021/07/25 06:08:01;;;;;;;18.37;14.80;;;;;;;27.94;42.77;99402.62;4485119;32;34211;-61
2021/07/25 06:10:29;;;;;;;25.17;14.10;;;;;;;27.94;42.45;99405.34;4484559;32;34505;-60
2021/07/25 06:12:58;;;;;;;18.33;14.05;;;;;;;27.94;42.47;99394.38;4484637;32;33975;-61
2021/07/25 06:15:26;;;;;;;18.17;13.68;;;;;;;27.94;42.50;99405.34;4483641;32;32818;-61
2021/07/25 06:17:54;;;;;;;16.15;14.27;;;;;;;27.96;42.71;99413.31;4484783;32;34722;-60
2021/07/25 06:20:22;;;;;;;16.87;14.25;;;;;;;27.96;42.66;99413.31;4484608;32;33771;-60
2021/07/25 06:22:51;;;;;;;17.95;14.87;;;;;;;27.95;42.86;99430.84;4482831;32;34479;-60
2021/07/25 06:25:21;;;;;;;15.98;13.62;;;;;;;27.95;42.94;99422.63;4469212;32;33134;-61
2021/07/25 06:27:48;;;;;;;;;;;;;;;27.96;42.58;99424.28;4469212;32;34376;-61
2021/07/25 06:30:16;;;;;;;16.87;14.98;;;;;;;28.08;42.38;99419.41;4469121;32;34265;-60
2021/07/25 06:32:56;;;;;;;18.23;16.17;;;;;;;27.99;42.76;99411.97;4469020;32;34910;-61
2021/07/25 06:35:34;;;;;;;15.65;13.60;;;;;;;27.95;43.43;99417.97;4469058;32;33400;-60
2021/07/25 06:38:06;;;;;;;15.73;14.13;;;;;;;27.92;43.53;99417.66;4468933;32;34085;-61
2021/07/25 06:40:34;;;;;;;18.67;14.27;;;;;;;27.93;43.31;99416.56;4469313;32;33778;-61
2021/07/25 06:43:02;;;;;;;15.73;14.13;;;;;;;27.94;43.21;99407.28;4468769;32;33802;-61
2021/07/25 06:45:30;;;;;;;16.60;14.80;;;;;;;27.94;43.25;99393.56;4468761;32;33382;-60
2021/07/25 06:47:58;;;;;;;15.50;13.90;;;;;;;27.93;43.45;99373.56;4468749;32;34392;-61
2021/07/25 06:50:27;;;;;;;15.15;13.57;;;;;;;27.94;43.39;99357.91;4466952;32;32879;-60
2021/07/25 06:52:57;;;;;;;15.90;14.30;;;;;;;27.94;43.45;99360.66;4484377;32;33803;-61
2021/07/25 06:55:26;;;;;;;15.20;13.20;;;;;;;27.94;43.55;99357.91;4484617;32;34510;-61
2021/07/25 06:57:54;;;;;;;15.80;13.40;;;;;;;27.93;43.52;99343.38;4483851;32;33981;-61
2021/07/25 07:00:21;;;;;;;15.98;14.35;;;;;;;27.95;43.45;99340.38;4487567;31;33885;-61
2021/07/25 07:02:50;;;;;;;17.73;14.60;;;;;;;27.95;43.47;99345.84;4500191;31;34621;-60
2021/07/25 07:05:19;;;;;;;15.73;14.07;;;;;;;27.95;43.55;99356.81;4500093;31;33560;-61
2021/07/25 07:07:47;;;;;;;16.75;13.50;;;;;;;27.95;43.52;99352.16;4500074;31;34218;-61
2021/07/25 07:10:15;;;;;;;17.25;12.98;;;;;;;27.96;43.56;99353.81;4500181;31;34252;-61
2021/07/25 07:12:43;;;;;;;15.27;13.32;;;;;;;27.97;43.55;99357.38;4499048;31;34063;-61
2021/07/25 07:15:13;;;;;;;16.40;13.68;;;;;;;27.96;43.56;99367.50;4500175;31;34139;-61
2021/07/25 07:17:40;;;;;;;16.33;13.65;;;;;;;27.97;43.59;99369.16;4500186;31;34334;-60
2021/07/25 07:20:09;;;;;;;15.75;12.90;;;;;;;27.97;43.60;99371.06;4500174;31;34202;-60
2021/07/25 07:22:37;;;;;;;18.52;13.60;;;;;;;28.00;43.60;99377.97;4500276;31;33971;-62
2021/07/25 07:25:05;;;;;;;23.87;14.43;;;;;;;28.00;43.55;99380.69;4500389;31;34467;-60
2021/07/25 07:27:33;;;;;;;19.92;13.65;;;;;;;27.98;43.66;99380.97;4500165;31;34982;-61
2021/07/25 07:30:00;;;;;;;19.70;14.38;;;;;;;28.00;43.55;99381.53;4500346;31;33945;-61
2021/07/25 07:32:28;;;;;;;18.95;14.05;;;;;;;28.01;43.54;99396.06;4500053;31;33668;-61
2021/07/25 07:34:56;;;;;;;18.27;13.85;;;;;;;28.01;43.56;99393.31;4499916;31;33712;-60
2021/07/25 07:37:23;;;;;;;21.37;13.90;;;;;;;28.02;43.57;99387.56;4500469;31;33904;-61
2021/07/25 07:39:51;;;;;;;15.90;13.62;;;;;;;28.02;43.40;99395.78;4500035;31;34273;-60
2021/07/25 07:42:19;;;;;;;18.27;12.90;;;;;;;28.02;43.37;99387.56;4499861;31;34260;-60
2021/07/25 07:44:46;;;;;;;18.20;13.38;;;;;;;28.02;43.31;99393.03;4499937;31;33202;-60
2021/07/25 07:47:14;;;;;;;17.55;12.63;;;;;;;28.04;43.25;99392.78;4499990;31;33850;-61
2021/07/25 07:49:42;;;;;;;17.05;12.25;;;;;;;28.03;43.10;99388.41;4491917;31;34923;-61
2021/07/25 07:52:09;;;;;;;15.40;12.52;;;;;;;28.03;43.10;99391.97;4484207;32;33785;-61
2021/07/25 07:54:38;;;;;;;23.27;13.93;;;;;;;28.04;43.00;99390.87;4469998;32;34424;-61
2021/07/25 07:57:05;;;;;;;13.82;12.07;;;;;;;28.04;43.03;99390.03;4484011;32;33961;-60
2021/07/25 07:59:32;;;;;;;17.27;13.45;;;;;;;28.04;42.94;99390.87;4484234;32;34855;-61
2021/07/25 08:02:00;;;;;;;14.98;12.93;;;;;;;28.04;43.05;99390.87;4484116;32;33475;-61
2021/07/25 08:04:28;;;;;;;16.75;12.50;;;;;;;28.04;43.02;99396.34;4483876;32;33439;-61
2021/07/25 08:06:55;;;;;;;16.80;12.93;;;;;;;28.04;43.02;99388.12;4484034;32;34644;-61
2021/07/25 08:09:23;;;;;;;15.90;12.55;;;;;;;28.04;43.01;99387.31;4484267;32;33723;-60
2021/07/25 08:11:51;;;;;;;14.02;12.52;;;;;;;28.04;42.96;99393.63;4483634;32;34151;-60
2021/07/25 08:14:19;;;;;;;17.15;11.88;;;;;;;28.04;42.92;99390.03;4469935;32;33142;-60
2021/07/25 08:16:47;;;;;;;13.65;11.82;;;;;;;28.04;42.92;99392.78;4482182;32;33546;-60
2021/07/25 08:19:15;;;;;;;20.85;12.88;;;;;;;28.04;42.93;99387.31;4483718;32;34868;-62
2021/07/25 08:21:42;;;;;;;23.48;12.37;;;;;;;28.03;42.94;99383.75;4483924;32;33811;-62
2021/07/25 08:24:10;;;;;;;18.12;12.40;;;;;;;28.06;42.91;99382.38;4477310;32;33570;-62
2021/07/25 08:26:38;;;;;;;21.33;13.40;;;;;;;28.06;42.99;99377.69;4477627;31;33517;-62
2021/07/25 08:29:05;;;;;;;21.77;12.77;;;;;;;28.06;43.19;99376.87;4482223;32;34792;-62
2021/07/25 08:31:38;;;;;;;13.77;12.37;;;;;;;28.07;43.41;99375.78;4485308;31;34094;-62
2021/07/25 08:34:13;;;;;;;13.65;12.25;;;;;;;28.08;43.53;99375.53;4481673;32;33463;-62
2021/07/25 08:36:43;;;;;;;19.05;13.85;;;;;;;28.08;43.68;99372.78;4476794;31;34003;-62
2021/07/25 08:39:11;;;;;;;25.25;13.32;;;;;;;28.09;43.79;99379.09;4467386;32;35592;-62
2021/07/25 08:42:02;;;;;;;16.98;12.88;;;;;;;28.10;43.82;99373.34;4468130;31;33270;-61
2021/07/25 08:44:45;;;;;;;15.65;12.93;;;;;;;28.13;43.70;99369.25;4476541;31;33382;-61
2021/07/25 08:47:33;;;;;;;15.38;12.63;;;;;;;28.12;43.73;99362.09;4472822;31;34588;-60
2021/07/25 08:50:01;;;;;;;14.43;12.23;;;;;;;28.16;43.60;99372.25;4499088;31;33723;-62
2021/07/25 08:52:34;;;;;;;15.48;12.32;;;;;;;28.13;43.64;99372.81;4498824;31;33463;-61
2021/07/25 08:55:05;;;;;;;14.43;12.75;;;;;;;28.13;43.61;99370.06;4498745;31;33584;-60
2021/07/25 08:57:35;;;;;;;14.50;12.15;;;;;;;28.12;43.63;99368.41;4499067;31;34337;-61
2021/07/25 09:00:04;;;;;;;14.87;13.38;;;;;;;28.13;43.56;99364.59;4493250;31;35134;-60
2021/07/25 09:02:31;;;;;;;14.17;11.43;;;;;;;28.15;43.55;99367.03;4483010;32;34508;-61
2021/07/25 09:04:59;;;;;;;13.93;11.50;;;;;;;28.15;43.55;99370.59;4482464;32;34410;-61
2021/07/25 09:07:29;;;;;;;17.77;13.35;;;;;;;28.16;43.54;99372.25;4482928;32;34459;-60
2021/07/25 09:10:00;;;;;;;18.35;12.25;;;;;;;28.14;43.59;99371.72;4482940;32;33712;-61
2021/07/25 09:12:28;;;;;;;17.87;12.55;;;;;;;28.15;43.57;99365.12;4482001;32;34673;-61
2021/07/25 09:14:57;;;;;;;14.73;12.35;;;;;;;28.17;43.55;99373.09;4482190;32;33599;-61
2021/07/25 09:17:25;;;;;;;13.82;12.02;;;;;;;28.17;43.61;99367.63;4467738;32;34653;-61
2021/07/25 09:20:12;;;;;;;18.77;12.00;;;;;;;28.17;43.57;99365.69;4467059;32;34253;-61
2021/07/25 09:22:49;;;;;;;13.57;11.23;;;;;;;28.21;43.54;99365.97;4467080;32;33412;-61
2021/07/25 09:25:19;;;;;;;13.85;11.23;;;;;;;28.19;43.60;99368.16;4467066;32;33759;-61
2021/07/25 09:28:07;;;;;;;16.33;12.00;;;;;;;28.18;43.58;99361.03;4466821;32;34545;-61
2021/07/25 09:30:34;;;;;;;14.25;12.07;;;;;;;28.20;43.54;99362.41;4467048;32;33499;-65
2021/07/25 09:33:02;;;;;;;14.23;12.27;;;;;;;28.20;43.51;99361.56;4452645;32;34015;-65
2021/07/25 09:35:30;;;;;;;13.43;12.02;;;;;;;28.21;43.59;99365.97;4453992;32;33545;-65
2021/07/25 09:38:04;;;;;;;20.30;12.27;;;;;;;28.22;43.52;99359.41;4498399;31;33665;-65
2021/07/25 09:40:36;;;;;;;18.10;11.82;;;;;;;28.23;43.52;99352.81;4500904;31;33588;-65
2021/07/25 09:43:23;;;;;;;13.68;12.27;;;;;;;28.20;43.60;99354.16;4500644;31;33449;-65
2021/07/25 09:45:54;;;;;;;17.15;12.02;;;;;;;28.25;43.55;99367.06;4470850;32;33561;-66
2021/07/25 09:48:28;;;;;;;18.87;12.40;;;;;;;28.22;43.60;99356.66;4485123;32;33980;-64
2021/07/25 09:50:58;;;;;;;12.43;11.07;;;;;;;28.22;43.61;99362.16;4484808;32;34108;-66
2021/07/25 09:53:44;;;;;;;17.60;12.70;;;;;;;28.21;43.66;99358.59;4472827;32;33782;-65
2021/07/25 09:56:15;;;;;;;15.38;11.52;;;;;;;28.23;43.59;99361.88;4483822;31;33552;-65
2021/07/25 09:58:44;;;;;;;13.18;11.65;;;;;;;28.23;43.59;99361.03;4500543;31;33637;-65
2021/07/25 10:01:37;;;;;;;13.60;12.18;;;;;;;28.22;43.60;99357.47;4461821;32;34054;-66
2021/07/25 10:04:20;;;;;;;14.45;11.70;;;;;;;28.28;43.51;99358.31;4484904;32;34597;-65
2021/07/25 10:06:52;;;;;;;15.40;12.00;;;;;;;28.26;43.52;99360.53;4484834;32;33496;-66
2021/07/25 10:09:21;;;;;;;13.50;11.23;;;;;;;28.25;43.54;99358.84;4458346;32;34455;-66
2021/07/25 10:11:55;;;;;;;20.48;11.48;;;;;;;28.25;43.50;99360.75;4484113;32;33989;-65
2021/07/25 10:14:23;;;;;;;17.12;11.73;;;;;;;28.26;43.50;99354.19;4474880;32;33252;-66
2021/07/25 10:16:55;;;;;;;15.20;11.57;;;;;;;28.26;43.48;99354.19;4457584;32;34001;-65
2021/07/25 10:19:27;;;;;;;13.80;11.85;;;;;;;28.26;43.53;99362.41;4470714;32;34753;-65
2021/07/25 10:21:55;;;;;;;17.02;12.07;;;;;;;28.24;43.55;99354.47;4470825;32;34168;-65
2021/07/25 10:24:23;;;;;;;15.85;11.45;;;;;;;28.25;43.54;99350.63;4470670;32;33925;-66
2021/07/25 10:26:52;;;;;;;16.37;12.13;;;;;;;28.25;43.54;99344.31;4457656;32;33513;-65
2021/07/25 10:29:23;;;;;;;15.27;11.73;;;;;;;28.26;43.55;99349.53;4457524;32;34025;-65
2021/07/25 10:31:53;;;;;;;15.18;12.00;;;;;;;28.26;43.59;99343.22;4484561;32;34257;-65
2021/07/25 10:34:24;;;;;;;14.63;12.77;;;;;;;28.27;43.63;99333.91;4457365;32;33923;-65
2021/07/25 10:36:52;;;;;;;15.63;12.77;;;;;;;28.28;43.61;99339.13;4491565;31;33585;-65
2021/07/25 10:39:20;;;;;;;14.45;12.90;;;;;;;28.28;43.60;99336.38;4473050;31;34032;-63
2021/07/25 10:41:48;;;;;;;15.82;12.70;;;;;;;28.28;43.63;99339.13;4486029;31;33787;-63
2021/07/25 10:44:16;;;;;;;13.98;12.07;;;;;;;28.28;43.62;99336.38;4464544;32;34497;-63
2021/07/25 10:46:44;;;;;;;13.13;11.82;;;;;;;28.28;43.58;99330.87;4469874;32;33733;-62
2021/07/25 10:49:12;;;;;;;17.48;12.23;;;;;;;28.28;43.52;99328.13;4483468;32;34081;-64
2021/07/25 10:51:59;;;;;;;14.82;11.77;;;;;;;28.29;43.42;99327.03;4483466;32;33958;-64
2021/07/25 10:54:31;;;;;;;12.13;10.93;;;;;;;28.34;43.26;99327.06;4484628;32;34028;-63
2021/07/25 10:57:10;;;;;;;13.55;11.60;;;;;;;28.29;43.24;99331.69;4479201;32;33034;-63
2021/07/25 10:59:55;;;;;;;13.27;11.30;;;;;;;28.29;43.22;99323.47;4468926;32;33496;-61
2021/07/25 11:02:24;;;;;;;16.73;11.55;;;;;;;28.30;43.13;99331.41;4468689;32;34235;-63
2021/07/25 11:04:55;;;;;;;14.68;11.52;;;;;;;28.29;43.11;99329.78;4468838;32;34079;-63
2021/07/25 11:07:22;;;;;;;13.70;11.63;;;;;;;28.29;43.09;99323.47;4468502;32;33356;-63
2021/07/25 11:10:11;;;;;;;14.77;11.65;;;;;;;28.29;43.04;99324.28;4468717;32;34095;-63
2021/07/25 11:12:47;;;;;;;12.93;10.80;;;;;;;28.29;43.04;99317.97;4468852;32;34157;-64
2021/07/25 11:15:31;;;;;;;14.38;11.32;;;;;;;28.30;43.00;99316.88;4468856;32;33866;-64
2021/07/25 11:17:59;;;;;;;12.85;10.70;;;;;;;28.31;42.98;99318.56;4468683;32;34289;-64
2021/07/25 11:20:53;;;;;;;13.75;11.45;;;;;;;28.28;42.99;99317.16;4466188;32;34631;-61
2021/07/25 11:23:21;;;;;;;14.02;11.27;;;;;;;28.28;42.94;99314.41;4476275;31;35245;-61
2021/07/25 11:25:49;;;;;;;12.63;10.88;;;;;;;28.27;43.03;99315.53;4484040;32;33394;-62
2021/07/25 11:28:42;;;;;;;13.13;10.80;;;;;;;28.27;43.10;99306.47;4498202;31;33699;-62
2021/07/25 11:31:13;;;;;;;13.77;11.30;;;;;;;28.29;43.14;99309.75;4489617;31;33880;-62